Bryantsville, Indiana
Current Conditions -  °F | °C
As of 4:53 PM on Tuesday 25 Nov 2014 (Local Time) from KBMG Reporting Station
Overcast Overcast  
Wind Chill: 26°   Ceiling: 1800
Heat Index: 31°   Visibility: 10mi
Dew Point: 25°   Wind: 5mph
Humidity: 79%   Direction: 270°W
Pressure: 30.15"   Gusts: NA
Location:  38.7366°N, 86.4546°W
Report Text: KBMG 252153Z 27004KT 10SM OVC018 M01/M04 A3015 RMK AO2 SLP216 T10061039
Loading
Personal Weather Stations






























Interactive Weather Map New forecast layout! Learn more

10-Day Weather Forecast

Advertisements
Track Severe Weather on mobile